Check out our new PWSWeather beta!
PWSweather.com
Personal Weather Stations
Station Observations
SD92115WX
El Cerrito Stoneybluff, San Diego, CA 92115

El Cerrito StoneybluffSan Diego, CA 92115

Lat: 32.754096, Lon: -117.066705

Elevation: 420

Station Type: Davis Vantage Vue

http://stoneybluff.com

High Low Average
Temperature 64.9°F18.3°C 54.5°F12.5°C 59.7°F15.4°C
Dew Point 54.5°F12.5°C 50.5°F10.3°C 52.9°F11.6°C
Winds 7.6 mph 12.2 kmh Calm Calm 2.0 mph WSW3.2 kmh WSW
Wind Gusts 12.8 mph20.6 kmh -- 5.0 mph8.0 kmh
Humidity 90% 64% 79%
Pressure 30.04 in1017.3 mb 29.93 in1013.5 mb -
Precipitation 0.00 in0.0 mm - -
Hour Temp Dew Point Humidity Winds Wind Gusts Pressure Precip Precip Rate Daily Precip Total
12:01 AM 54.5°F12.5°C 51.6°F10.9°C 90% Calm Calm -- 29.95 in1014.2 mb 0.00 in0.0 mm 0.00 in0.0 mm 0.00 in0.0 mm
12:06 AM 54.7°F12.6°C 51.8°F11.0°C 90% Calm Calm -- 29.95 in1014.2 mb 0.00 in0.0 mm 0.00 in0.0 mm 0.00 in0.0 mm
12:11 AM 54.7°F12.6°C 51.8°F11.0°C 90% Calm Calm -- 29.95 in1014.2 mb 0.00 in0.0 mm 0.00 in0.0 mm 0.00 in0.0 mm
12:16 AM 54.7°F12.6°C 51.8°F11.0°C 90% Calm Calm -- 29.95 in1014.2 mb 0.00 in0.0 mm 0.00 in0.0 mm 0.00 in0.0 mm
12:21 AM 54.5°F12.5°C 51.6°F10.9°C 90% 0.7 mph ENE1.1 kmh ENE 2.0 mph3.2 kmh 29.94 in1013.9 mb 0.00 in0.0 mm 0.00 in0.0 mm 0.00 in0.0 mm
12:26 AM 54.7°F12.6°C 51.8°F11.0°C 90% 0.2 mph NW0.3 kmh NW 2.0 mph3.2 kmh 29.95 in1014.2 mb 0.00 in0.0 mm 0.00 in0.0 mm 0.00 in0.0 mm
12:31 AM 54.9°F12.7°C 52.0°F11.1°C 90% Calm Calm 1.1 mph1.8 kmh 29.94 in1013.9 mb 0.00 in0.0 mm 0.00 in0.0 mm 0.00 in0.0 mm
12:36 AM 54.9°F12.7°C 52.0°F11.1°C 90% Calm Calm -- 29.94 in1013.9 mb 0.00 in0.0 mm 0.00 in0.0 mm 0.00 in0.0 mm
12:41 AM 55.0°F12.8°C 52.2°F11.2°C 90% Calm Calm -- 29.94 in1013.9 mb 0.00 in0.0 mm 0.00 in0.0 mm 0.00 in0.0 mm
12:46 AM 55.2°F12.9°C 52.3°F11.3°C 90% Calm Calm -- 29.93 in1013.5 mb 0.00 in0.0 mm 0.00 in0.0 mm 0.00 in0.0 mm
12:51 AM 55.4°F13.0°C 52.5°F11.4°C 90% Calm Calm -- 29.94 in1013.9 mb 0.00 in0.0 mm 0.00 in0.0 mm 0.00 in0.0 mm
12:56 AM 55.4°F13.0°C 52.5°F11.4°C 90% Calm Calm -- 29.94 in1013.9 mb 0.00 in0.0 mm 0.00 in0.0 mm 0.00 in0.0 mm
01:01 AM 55.6°F13.1°C 52.7°F11.5°C 90% Calm Calm -- 29.94 in1013.9 mb 0.00 in0.0 mm 0.00 in0.0 mm 0.00 in0.0 mm
01:06 AM 55.6°F13.1°C 52.7°F11.5°C 90% Calm Calm -- 29.94 in1013.9 mb 0.00 in0.0 mm 0.00 in0.0 mm 0.00 in0.0 mm
01:11 AM 55.6°F13.1°C 52.7°F11.5°C 90% Calm Calm -- 29.94 in1013.9 mb 0.00 in0.0 mm 0.00 in0.0 mm 0.00 in0.0 mm
01:16 AM 55.8°F13.2°C 52.9°F11.6°C 90% Calm Calm -- 29.94 in1013.9 mb 0.00 in0.0 mm 0.00 in0.0 mm 0.00 in0.0 mm
01:21 AM 55.8°F13.2°C 52.9°F11.6°C 90% Calm Calm -- 29.94 in1013.9 mb 0.00 in0.0 mm 0.00 in0.0 mm 0.00 in0.0 mm
01:26 AM 55.8°F13.2°C 52.9°F11.6°C 90% Calm Calm -- 29.95 in1014.2 mb 0.00 in0.0 mm 0.00 in0.0 mm 0.00 in0.0 mm
01:31 AM 55.8°F13.2°C 52.9°F11.6°C 90% Calm Calm -- 29.95 in1014.2 mb 0.00 in0.0 mm 0.00 in0.0 mm 0.00 in0.0 mm
01:36 AM 55.9°F13.3°C 53.1°F11.7°C 90% Calm Calm 1.1 mph1.8 kmh 29.95 in1014.2 mb 0.00 in0.0 mm 0.00 in0.0 mm 0.00 in0.0 mm
01:41 AM 56.1°F13.4°C 53.2°F11.8°C 90% Calm Calm -- 29.95 in1014.2 mb 0.00 in0.0 mm 0.00 in0.0 mm 0.00 in0.0 mm
01:46 AM 56.1°F13.4°C 52.9°F11.6°C 89% Calm Calm -- 29.95 in1014.2 mb 0.00 in0.0 mm 0.00 in0.0 mm 0.00 in0.0 mm
01:51 AM 56.1°F13.4°C 52.9°F11.6°C 89% Calm Calm -- 29.95 in1014.2 mb 0.00 in0.0 mm 0.00 in0.0 mm 0.00 in0.0 mm
01:56 AM 56.3°F13.5°C 53.1°F11.7°C 89% Calm Calm -- 29.95 in1014.2 mb 0.00 in0.0 mm 0.00 in0.0 mm 0.00 in0.0 mm
02:01 AM 56.5°F13.6°C 53.2°F11.8°C 89% Calm Calm -- 29.95 in1014.2 mb 0.00 in0.0 mm 0.00 in0.0 mm 0.00 in0.0 mm
02:06 AM 56.5°F13.6°C 53.2°F11.8°C 89% Calm Calm -- 29.95 in1014.2 mb 0.00 in0.0 mm 0.00 in0.0 mm 0.00 in0.0 mm
02:11 AM 56.5°F13.6°C 53.2°F11.8°C 89% Calm Calm -- 29.95 in1014.2 mb 0.00 in0.0 mm 0.00 in0.0 mm 0.00 in0.0 mm
02:16 AM 56.7°F13.7°C 53.4°F11.9°C 89% Calm Calm -- 29.95 in1014.2 mb 0.00 in0.0 mm 0.00 in0.0 mm 0.00 in0.0 mm
02:21 AM 56.7°F13.7°C 53.4°F11.9°C 89% Calm Calm -- 29.95 in1014.2 mb 0.00 in0.0 mm 0.00 in0.0 mm 0.00 in0.0 mm
02:26 AM 56.7°F13.7°C 53.4°F11.9°C 89% Calm Calm -- 29.96 in1014.6 mb 0.00 in0.0 mm 0.00 in0.0 mm 0.00 in0.0 mm
02:31 AM 56.8°F13.8°C 53.6°F12.0°C 89% Calm Calm -- 29.95 in1014.2 mb 0.00 in0.0 mm 0.00 in0.0 mm 0.00 in0.0 mm
02:36 AM 56.8°F13.8°C 53.6°F12.0°C 89% Calm Calm -- 29.96 in1014.6 mb 0.00 in0.0 mm 0.00 in0.0 mm 0.00 in0.0 mm
02:41 AM 56.8°F13.8°C 53.2°F11.8°C 88% Calm Calm -- 29.96 in1014.6 mb 0.00 in0.0 mm 0.00 in0.0 mm 0.00 in0.0 mm
02:46 AM 57.0°F13.9°C 53.8°F12.1°C 89% Calm Calm -- 29.96 in1014.6 mb 0.00 in0.0 mm 0.00 in0.0 mm 0.00 in0.0 mm
02:51 AM 57.0°F13.9°C 53.8°F12.1°C 89% Calm Calm -- 29.96 in1014.6 mb 0.00 in0.0 mm 0.00 in0.0 mm 0.00 in0.0 mm
02:56 AM 57.0°F13.9°C 53.8°F12.1°C 89% Calm Calm -- 29.96 in1014.6 mb 0.00 in0.0 mm 0.00 in0.0 mm 0.00 in0.0 mm
03:01 AM 57.4°F14.1°C 54.1°F12.3°C 89% 1.1 mph NW1.8 kmh NW 3.1 mph5.0 kmh 29.96 in1014.6 mb 0.00 in0.0 mm 0.00 in0.0 mm 0.00 in0.0 mm
03:06 AM 57.4°F14.1°C 54.1°F12.3°C 89% 0.4 mph WNW0.6 kmh WNW 5.4 mph8.7 kmh 29.96 in1014.6 mb 0.00 in0.0 mm 0.00 in0.0 mm 0.00 in0.0 mm
03:11 AM 57.6°F14.2°C 54.3°F12.4°C 89% 0.7 mph WNW1.1 kmh WNW 3.1 mph5.0 kmh 29.96 in1014.6 mb 0.00 in0.0 mm 0.00 in0.0 mm 0.00 in0.0 mm
03:16 AM 57.6°F14.2°C 54.3°F12.4°C 89% 0.4 mph NW0.6 kmh NW 2.0 mph3.2 kmh 29.96 in1014.6 mb 0.00 in0.0 mm 0.00 in0.0 mm 0.00 in0.0 mm
03:21 AM 57.6°F14.2°C 54.0°F12.2°C 88% 0.9 mph WNW1.4 kmh WNW 3.1 mph5.0 kmh 29.96 in1014.6 mb 0.00 in0.0 mm 0.00 in0.0 mm 0.00 in0.0 mm
03:26 AM 57.6°F14.2°C 54.0°F12.2°C 88% 0.4 mph NW0.6 kmh NW 3.1 mph5.0 kmh 29.96 in1014.6 mb 0.00 in0.0 mm 0.00 in0.0 mm 0.00 in0.0 mm
03:31 AM 57.6°F14.2°C 54.0°F12.2°C 88% 0.7 mph NW1.1 kmh NW 3.1 mph5.0 kmh 29.96 in1014.6 mb 0.00 in0.0 mm 0.00 in0.0 mm 0.00 in0.0 mm
03:36 AM 57.7°F14.3°C 54.1°F12.3°C 88% 0.4 mph NW0.6 kmh NW 2.0 mph3.2 kmh 29.96 in1014.6 mb 0.00 in0.0 mm 0.00 in0.0 mm 0.00 in0.0 mm
03:41 AM 57.7°F14.3°C 54.0°F12.2°C 87% Calm Calm 1.1 mph1.8 kmh 29.96 in1014.6 mb 0.00 in0.0 mm 0.00 in0.0 mm 0.00 in0.0 mm
03:46 AM 57.7°F14.3°C 54.0°F12.2°C 87% Calm Calm -- 29.96 in1014.6 mb 0.00 in0.0 mm 0.00 in0.0 mm 0.00 in0.0 mm
03:51 AM 57.9°F14.4°C 54.3°F12.4°C 88% 2.5 mph NW4.0 kmh NW 6.3 mph10.1 kmh 29.96 in1014.6 mb 0.00 in0.0 mm 0.00 in0.0 mm 0.00 in0.0 mm
03:56 AM 57.9°F14.4°C 54.3°F12.4°C 88% 3.4 mph WNW5.5 kmh WNW 8.5 mph13.7 kmh 29.97 in1014.9 mb 0.00 in0.0 mm 0.00 in0.0 mm 0.00 in0.0 mm
04:01 AM 57.9°F14.4°C 54.3°F12.4°C 88% 2.9 mph N4.7 kmh N 8.5 mph13.7 kmh 29.97 in1014.9 mb 0.00 in0.0 mm 0.00 in0.0 mm 0.00 in0.0 mm
04:06 AM 57.7°F14.3°C 54.1°F12.3°C 88% 0.7 mph WNW1.1 kmh WNW 7.4 mph11.9 kmh 29.97 in1014.9 mb 0.00 in0.0 mm 0.00 in0.0 mm 0.00 in0.0 mm
04:11 AM 57.7°F14.3°C 54.1°F12.3°C 88% 0.9 mph W1.4 kmh W 4.3 mph6.9 kmh 29.97 in1014.9 mb 0.00 in0.0 mm 0.00 in0.0 mm 0.00 in0.0 mm
04:16 AM 57.7°F14.3°C 54.0°F12.2°C 87% 1.6 mph W2.6 kmh W 4.3 mph6.9 kmh 29.97 in1014.9 mb 0.00 in0.0 mm 0.00 in0.0 mm 0.00 in0.0 mm
04:21 AM 57.7°F14.3°C 54.0°F12.2°C 87% 2.9 mph WSW4.7 kmh WSW 7.4 mph11.9 kmh 29.97 in1014.9 mb 0.00 in0.0 mm 0.00 in0.0 mm 0.00 in0.0 mm
04:26 AM 57.7°F14.3°C 54.0°F12.2°C 87% 2.5 mph NNW4.0 kmh NNW 7.4 mph11.9 kmh 29.97 in1014.9 mb 0.00 in0.0 mm 0.00 in0.0 mm 0.00 in0.0 mm
04:31 AM 57.7°F14.3°C 54.0°F12.2°C 87% 2.2 mph SW3.5 kmh SW 6.3 mph10.1 kmh 29.97 in1014.9 mb 0.00 in0.0 mm 0.00 in0.0 mm 0.00 in0.0 mm
04:36 AM 57.7°F14.3°C 54.0°F12.2°C 87% 3.8 mph WSW6.1 kmh WSW 8.5 mph13.7 kmh 29.98 in1015.2 mb 0.00 in0.0 mm 0.00 in0.0 mm 0.00 in0.0 mm
04:41 AM 57.6°F14.2°C 53.8°F12.1°C 87% 4.7 mph W7.6 kmh W 11.6 mph18.7 kmh 29.98 in1015.2 mb 0.00 in0.0 mm 0.00 in0.0 mm 0.00 in0.0 mm
04:46 AM 57.6°F14.2°C 53.8°F12.1°C 87% 4.7 mph NW7.6 kmh NW 8.5 mph13.7 kmh 29.98 in1015.2 mb 0.00 in0.0 mm 0.00 in0.0 mm 0.00 in0.0 mm
04:51 AM 57.6°F14.2°C 53.8°F12.1°C 87% 2.7 mph NW4.3 kmh NW 8.5 mph13.7 kmh 29.98 in1015.2 mb 0.00 in0.0 mm 0.00 in0.0 mm 0.00 in0.0 mm
04:56 AM 57.6°F14.2°C 53.4°F11.9°C 86% 1.1 mph WSW1.8 kmh WSW 8.5 mph13.7 kmh 29.98 in1015.2 mb 0.00 in0.0 mm 0.00 in0.0 mm 0.00 in0.0 mm
05:01 AM 57.6°F14.2°C 53.4°F11.9°C 86% 3.1 mph WSW5.0 kmh WSW 7.4 mph11.9 kmh 29.98 in1015.2 mb 0.00 in0.0 mm 0.00 in0.0 mm 0.00 in0.0 mm
05:06 AM 57.7°F14.3°C 53.2°F11.8°C 85% 2.5 mph WSW4.0 kmh WSW 6.3 mph10.1 kmh 29.99 in1015.6 mb 0.00 in0.0 mm 0.00 in0.0 mm 0.00 in0.0 mm
05:11 AM 57.7°F14.3°C 53.2°F11.8°C 85% 3.4 mph W5.5 kmh W 11.6 mph18.7 kmh 29.99 in1015.6 mb 0.00 in0.0 mm 0.00 in0.0 mm 0.00 in0.0 mm
05:16 AM 57.7°F14.3°C 52.9°F11.6°C 84% 1.6 mph WNW2.6 kmh WNW 10.5 mph16.9 kmh 29.99 in1015.6 mb 0.00 in0.0 mm 0.00 in0.0 mm 0.00 in0.0 mm
05:21 AM 57.9°F14.4°C 53.1°F11.7°C 84% 2.5 mph WSW4.0 kmh WSW 6.3 mph10.1 kmh 29.99 in1015.6 mb 0.00 in0.0 mm 0.00 in0.0 mm 0.00 in0.0 mm
05:26 AM 57.9°F14.4°C 53.1°F11.7°C 84% 2.7 mph WSW4.3 kmh WSW 6.3 mph10.1 kmh 29.99 in1015.6 mb 0.00 in0.0 mm 0.00 in0.0 mm 0.00 in0.0 mm
05:31 AM 57.9°F14.4°C 53.1°F11.7°C 84% 2.2 mph W3.5 kmh W 5.4 mph8.7 kmh 29.99 in1015.6 mb 0.00 in0.0 mm 0.00 in0.0 mm 0.00 in0.0 mm
05:36 AM 57.9°F14.4°C 53.1°F11.7°C 84% 2.9 mph NW4.7 kmh NW 8.5 mph13.7 kmh 30.00 in1015.9 mb 0.00 in0.0 mm 0.00 in0.0 mm 0.00 in0.0 mm
05:41 AM 57.9°F14.4°C 53.1°F11.7°C 84% 2.0 mph N3.2 kmh N 6.3 mph10.1 kmh 30.00 in1015.9 mb 0.00 in0.0 mm 0.00 in0.0 mm 0.00 in0.0 mm
05:46 AM 57.9°F14.4°C 52.7°F11.5°C 83% 3.4 mph NW5.5 kmh NW 6.3 mph10.1 kmh 30.00 in1015.9 mb 0.00 in0.0 mm 0.00 in0.0 mm 0.00 in0.0 mm
05:51 AM 57.9°F14.4°C 52.7°F11.5°C 83% 1.8 mph WNW2.9 kmh WNW 5.4 mph8.7 kmh 30.00 in1015.9 mb 0.00 in0.0 mm 0.00 in0.0 mm 0.00 in0.0 mm
05:56 AM 57.9°F14.4°C 52.7°F11.5°C 83% 1.8 mph W2.9 kmh W 7.4 mph11.9 kmh 30.01 in1016.3 mb 0.00 in0.0 mm 0.00 in0.0 mm 0.00 in0.0 mm
06:01 AM 58.1°F14.5°C 52.7°F11.5°C 82% 3.1 mph W5.0 kmh W 6.3 mph10.1 kmh 30.00 in1015.9 mb 0.00 in0.0 mm 0.00 in0.0 mm 0.00 in0.0 mm
06:06 AM 58.3°F14.6°C 52.9°F11.6°C 82% 2.7 mph SW4.3 kmh SW 8.5 mph13.7 kmh 30.01 in1016.3 mb 0.00 in0.0 mm 0.00 in0.0 mm 0.00 in0.0 mm
06:11 AM 58.3°F14.6°C 52.9°F11.6°C 82% 4.0 mph WNW6.4 kmh WNW 6.3 mph10.1 kmh 30.01 in1016.3 mb 0.00 in0.0 mm 0.00 in0.0 mm 0.00 in0.0 mm
06:16 AM 58.5°F14.7°C 53.1°F11.7°C 82% 3.1 mph W5.0 kmh W 6.3 mph10.1 kmh 30.01 in1016.3 mb 0.00 in0.0 mm 0.00 in0.0 mm 0.00 in0.0 mm
06:21 AM 58.6°F14.8°C 53.2°F11.8°C 82% 0.7 mph WNW1.1 kmh WNW 8.5 mph13.7 kmh 30.01 in1016.3 mb 0.00 in0.0 mm 0.00 in0.0 mm 0.00 in0.0 mm
06:26 AM 58.6°F14.8°C 53.2°F11.8°C 82% 2.7 mph WSW4.3 kmh WSW 6.3 mph10.1 kmh 30.01 in1016.3 mb 0.00 in0.0 mm 0.00 in0.0 mm 0.00 in0.0 mm
06:31 AM 59.0°F15.0°C 53.6°F12.0°C 82% 2.9 mph SW4.7 kmh SW 6.3 mph10.1 kmh 30.01 in1016.3 mb 0.00 in0.0 mm 0.00 in0.0 mm 0.00 in0.0 mm
06:36 AM 59.2°F15.1°C 53.6°F12.0°C 82% 3.8 mph W6.1 kmh W 9.6 mph15.4 kmh 30.01 in1016.3 mb 0.00 in0.0 mm 0.00 in0.0 mm 0.00 in0.0 mm
06:41 AM 59.0°F15.0°C 53.2°F11.8°C 81% 4.5 mph W7.2 kmh W 7.4 mph11.9 kmh 30.02 in1016.6 mb 0.00 in0.0 mm 0.00 in0.0 mm 0.00 in0.0 mm
06:46 AM 58.8°F14.9°C 53.1°F11.7°C 81% 3.6 mph WNW5.8 kmh WNW 8.5 mph13.7 kmh 30.02 in1016.6 mb 0.00 in0.0 mm 0.00 in0.0 mm 0.00 in0.0 mm
06:51 AM 58.8°F14.9°C 53.1°F11.7°C 81% 0.9 mph WNW1.4 kmh WNW 5.4 mph8.7 kmh 30.01 in1016.3 mb 0.00 in0.0 mm 0.00 in0.0 mm 0.00 in0.0 mm
06:56 AM 58.8°F14.9°C 53.1°F11.7°C 81% 3.1 mph W5.0 kmh W 7.4 mph11.9 kmh 30.01 in1016.3 mb 0.00 in0.0 mm 0.00 in0.0 mm 0.00 in0.0 mm
07:01 AM 59.0°F15.0°C 53.2°F11.8°C 81% 2.2 mph W3.5 kmh W 6.3 mph10.1 kmh 30.01 in1016.3 mb 0.00 in0.0 mm 0.00 in0.0 mm 0.00 in0.0 mm
07:06 AM 59.2°F15.1°C 53.1°F11.7°C 80% 4.3 mph NNW6.9 kmh NNW 8.5 mph13.7 kmh 30.02 in1016.6 mb 0.00 in0.0 mm 0.00 in0.0 mm 0.00 in0.0 mm
07:11 AM 59.2°F15.1°C 53.1°F11.7°C 80% 2.2 mph WNW3.5 kmh WNW 5.4 mph8.7 kmh 30.02 in1016.6 mb 0.00 in0.0 mm 0.00 in0.0 mm 0.00 in0.0 mm
07:16 AM 59.4°F15.2°C 53.2°F11.8°C 80% 2.5 mph NW4.0 kmh NW 6.3 mph10.1 kmh 30.02 in1016.6 mb 0.00 in0.0 mm 0.00 in0.0 mm 0.00 in0.0 mm
07:21 AM 59.5°F15.3°C 53.4°F11.9°C 80% 1.8 mph W2.9 kmh W 6.3 mph10.1 kmh 30.02 in1016.6 mb 0.00 in0.0 mm 0.00 in0.0 mm 0.00 in0.0 mm
07:26 AM 59.7°F15.4°C 53.6°F12.0°C 80% 1.8 mph WSW2.9 kmh WSW 6.3 mph10.1 kmh 30.02 in1016.6 mb 0.00 in0.0 mm 0.00 in0.0 mm 0.00 in0.0 mm
07:31 AM 59.9°F15.5°C 53.8°F12.1°C 80% 4.3 mph WSW6.9 kmh WSW 9.6 mph15.4 kmh 30.02 in1016.6 mb 0.00 in0.0 mm 0.00 in0.0 mm 0.00 in0.0 mm
07:36 AM 59.7°F15.4°C 53.6°F12.0°C 80% 4.3 mph WSW6.9 kmh WSW 7.4 mph11.9 kmh 30.02 in1016.6 mb 0.00 in0.0 mm 0.00 in0.0 mm 0.00 in0.0 mm
07:41 AM 59.9°F15.5°C 54.1°F12.3°C 81% 2.5 mph NW4.0 kmh NW 6.3 mph10.1 kmh 30.02 in1016.6 mb 0.00 in0.0 mm 0.00 in0.0 mm 0.00 in0.0 mm
07:46 AM 60.1°F15.6°C 54.0°F12.2°C 80% 1.8 mph WNW2.9 kmh WNW 6.3 mph10.1 kmh 30.02 in1016.6 mb 0.00 in0.0 mm 0.00 in0.0 mm 0.00 in0.0 mm
07:51 AM 60.1°F15.6°C 53.6°F12.0°C 79% 3.8 mph WNW6.1 kmh WNW 8.5 mph13.7 kmh 30.02 in1016.6 mb 0.00 in0.0 mm 0.00 in0.0 mm 0.00 in0.0 mm
07:56 AM 60.1°F15.6°C 53.2°F11.8°C 78% 4.7 mph WNW7.6 kmh WNW 6.3 mph10.1 kmh 30.02 in1016.6 mb 0.00 in0.0 mm 0.00 in0.0 mm 0.00 in0.0 mm
08:01 AM 60.1°F15.6°C 53.6°F12.0°C 79% 1.8 mph NW2.9 kmh NW 7.4 mph11.9 kmh 30.02 in1016.6 mb 0.00 in0.0 mm 0.00 in0.0 mm 0.00 in0.0 mm
08:06 AM 60.1°F15.6°C 53.6°F12.0°C 79% 4.5 mph NW7.2 kmh NW 6.3 mph10.1 kmh 30.02 in1016.6 mb 0.00 in0.0 mm 0.00 in0.0 mm 0.00 in0.0 mm
08:11 AM 59.9°F15.5°C 53.8°F12.1°C 80% 4.9 mph NW7.9 kmh NW 8.5 mph13.7 kmh 30.02 in1016.6 mb 0.00 in0.0 mm 0.00 in0.0 mm 0.00 in0.0 mm
08:16 AM 59.7°F15.4°C 53.6°F12.0°C 80% 3.6 mph N5.8 kmh N 7.4 mph11.9 kmh 30.02 in1016.6 mb 0.00 in0.0 mm 0.00 in0.0 mm 0.00 in0.0 mm
08:21 AM 59.7°F15.4°C 53.6°F12.0°C 80% 3.1 mph 5.0 kmh 7.4 mph11.9 kmh 30.02 in1016.6 mb 0.00 in0.0 mm 0.00 in0.0 mm 0.00 in0.0 mm
08:26 AM 59.9°F15.5°C 53.8°F12.1°C 80% 4.3 mph N6.9 kmh N 9.6 mph15.4 kmh 30.02 in1016.6 mb 0.00 in0.0 mm 0.00 in0.0 mm 0.00 in0.0 mm
08:31 AM 60.1°F15.6°C 54.0°F12.2°C 80% 2.7 mph W4.3 kmh W 5.4 mph8.7 kmh 30.02 in1016.6 mb 0.00 in0.0 mm 0.00 in0.0 mm 0.00 in0.0 mm
08:36 AM 60.1°F15.6°C 53.6°F12.0°C 79% 2.9 mph NW4.7 kmh NW 7.4 mph11.9 kmh 30.03 in1016.9 mb 0.00 in0.0 mm 0.00 in0.0 mm 0.00 in0.0 mm
08:41 AM 60.1°F15.6°C 53.2°F11.8°C 78% 3.8 mph NW6.1 kmh NW 7.4 mph11.9 kmh 30.03 in1016.9 mb 0.00 in0.0 mm 0.00 in0.0 mm 0.00 in0.0 mm
08:46 AM 60.1°F15.6°C 52.9°F11.6°C 77% 2.7 mph W4.3 kmh W 5.4 mph8.7 kmh 30.03 in1016.9 mb 0.00 in0.0 mm 0.00 in0.0 mm 0.00 in0.0 mm
08:51 AM 60.3°F15.7°C 53.4°F11.9°C 78% 0.7 mph WNW1.1 kmh WNW 8.5 mph13.7 kmh 30.03 in1016.9 mb 0.00 in0.0 mm 0.00 in0.0 mm 0.00 in0.0 mm
08:56 AM 60.4°F15.8°C 53.2°F11.8°C 77% 2.9 mph NNW4.7 kmh NNW 5.4 mph8.7 kmh 30.03 in1016.9 mb 0.00 in0.0 mm 0.00 in0.0 mm 0.00 in0.0 mm
09:01 AM 60.6°F15.9°C 53.4°F11.9°C 77% 2.2 mph NW3.5 kmh NW 5.4 mph8.7 kmh 30.03 in1016.9 mb 0.00 in0.0 mm 0.00 in0.0 mm 0.00 in0.0 mm
09:06 AM 61.0°F16.1°C 53.8°F12.1°C 77% 3.1 mph WNW5.0 kmh WNW 5.4 mph8.7 kmh 30.03 in1016.9 mb 0.00 in0.0 mm 0.00 in0.0 mm 0.00 in0.0 mm
09:11 AM 61.2°F16.2°C 54.0°F12.2°C 77% 3.4 mph WSW5.5 kmh WSW 6.3 mph10.1 kmh 30.03 in1016.9 mb 0.00 in0.0 mm 0.00 in0.0 mm 0.00 in0.0 mm
09:16 AM 61.0°F16.1°C 53.8°F12.1°C 77% 2.0 mph NW3.2 kmh NW 4.3 mph6.9 kmh 30.03 in1016.9 mb 0.00 in0.0 mm 0.00 in0.0 mm 0.00 in0.0 mm
09:21 AM 61.2°F16.2°C 54.3°F12.4°C 78% 2.9 mph NW4.7 kmh NW 5.4 mph8.7 kmh 30.03 in1016.9 mb 0.00 in0.0 mm 0.00 in0.0 mm 0.00 in0.0 mm
09:26 AM 61.3°F16.3°C 53.8°F12.1°C 76% 2.5 mph NW4.0 kmh NW 5.4 mph8.7 kmh 30.03 in1016.9 mb 0.00 in0.0 mm 0.00 in0.0 mm 0.00 in0.0 mm
09:31 AM 61.3°F16.3°C 53.8°F12.1°C 76% 3.8 mph SSE6.1 kmh SSE 6.3 mph10.1 kmh 30.03 in1016.9 mb 0.00 in0.0 mm 0.00 in0.0 mm 0.00 in0.0 mm
09:36 AM 61.3°F16.3°C 53.8°F12.1°C 76% 3.6 mph WNW5.8 kmh WNW 6.3 mph10.1 kmh 30.03 in1016.9 mb 0.00 in0.0 mm 0.00 in0.0 mm 0.00 in0.0 mm
09:41 AM 61.5°F16.4°C 54.3°F12.4°C 77% 3.6 mph WSW5.8 kmh WSW 7.4 mph11.9 kmh 30.03 in1016.9 mb 0.00 in0.0 mm 0.00 in0.0 mm 0.00 in0.0 mm
09:46 AM 61.5°F16.4°C 54.3°F12.4°C 77% 2.0 mph SW3.2 kmh SW 7.4 mph11.9 kmh 30.03 in1016.9 mb 0.00 in0.0 mm 0.00 in0.0 mm 0.00 in0.0 mm
09:51 AM 62.1°F16.7°C 54.3°F12.4°C 76% 2.5 mph WSW4.0 kmh WSW 4.3 mph6.9 kmh 30.03 in1016.9 mb 0.00 in0.0 mm 0.00 in0.0 mm 0.00 in0.0 mm
09:56 AM 62.2°F16.8°C 54.1°F12.3°C 75% 4.5 mph W7.2 kmh W 7.4 mph11.9 kmh 30.03 in1016.9 mb 0.00 in0.0 mm 0.00 in0.0 mm 0.00 in0.0 mm
10:01 AM 62.6°F17.0°C 54.5°F12.5°C 75% 4.0 mph SW6.4 kmh SW 7.4 mph11.9 kmh 30.03 in1016.9 mb 0.00 in0.0 mm 0.00 in0.0 mm 0.00 in0.0 mm
10:06 AM 63.5°F17.5°C 53.6°F12.0°C 70% 5.1 mph NNW8.2 kmh NNW 10.5 mph16.9 kmh 30.03 in1016.9 mb 0.00 in0.0 mm 0.00 in0.0 mm 0.00 in0.0 mm
10:11 AM 63.1°F17.3°C 54.0°F12.2°C 72% 4.9 mph WSW7.9 kmh WSW 9.6 mph15.4 kmh 30.03 in1016.9 mb 0.00 in0.0 mm 0.00 in0.0 mm 0.00 in0.0 mm
10:16 AM 63.1°F17.3°C 53.6°F12.0°C 71% 4.5 mph SW7.2 kmh SW 8.5 mph13.7 kmh 30.03 in1016.9 mb 0.00 in0.0 mm 0.00 in0.0 mm 0.00 in0.0 mm
10:21 AM 63.1°F17.3°C 54.0°F12.2°C 72% 4.0 mph NW6.4 kmh NW 9.6 mph15.4 kmh 30.03 in1016.9 mb 0.00 in0.0 mm 0.00 in0.0 mm 0.00 in0.0 mm
10:26 AM 63.1°F17.3°C 53.6°F12.0°C 71% 4.5 mph S7.2 kmh S 7.4 mph11.9 kmh 30.03 in1016.9 mb 0.00 in0.0 mm 0.00 in0.0 mm 0.00 in0.0 mm
10:31 AM 63.3°F17.4°C 53.8°F12.1°C 71% 4.9 mph SW7.9 kmh SW 8.5 mph13.7 kmh 30.03 in1016.9 mb 0.00 in0.0 mm 0.00 in0.0 mm 0.00 in0.0 mm
10:36 AM 63.3°F17.4°C 53.1°F11.7°C 69% 5.4 mph WSW8.7 kmh WSW 11.6 mph18.7 kmh 30.03 in1016.9 mb 0.00 in0.0 mm 0.00 in0.0 mm 0.00 in0.0 mm
10:41 AM 63.1°F17.3°C 53.6°F12.0°C 71% 2.7 mph SSW4.3 kmh SSW 11.6 mph18.7 kmh 30.03 in1016.9 mb 0.00 in0.0 mm 0.00 in0.0 mm 0.00 in0.0 mm
10:46 AM 63.3°F17.4°C 53.4°F11.9°C 70% 3.8 mph WSW6.1 kmh WSW 8.5 mph13.7 kmh 30.03 in1016.9 mb 0.00 in0.0 mm 0.00 in0.0 mm 0.00 in0.0 mm
10:51 AM 63.1°F17.3°C 53.2°F11.8°C 70% 4.3 mph SW6.9 kmh SW 8.5 mph13.7 kmh 30.03 in1016.9 mb 0.00 in0.0 mm 0.00 in0.0 mm 0.00 in0.0 mm
10:56 AM 63.0°F17.2°C 53.1°F11.7°C 70% 5.4 mph S8.7 kmh S 8.5 mph13.7 kmh 30.03 in1016.9 mb 0.00 in0.0 mm 0.00 in0.0 mm 0.00 in0.0 mm
11:01 AM 63.1°F17.3°C 54.3°F12.4°C 73% 3.8 mph WSW6.1 kmh WSW 11.6 mph18.7 kmh 30.02 in1016.6 mb 0.00 in0.0 mm 0.00 in0.0 mm 0.00 in0.0 mm
11:06 AM 63.5°F17.5°C 54.0°F12.2°C 71% 2.5 mph NW4.0 kmh NW 10.5 mph16.9 kmh 30.03 in1016.9 mb 0.00 in0.0 mm 0.00 in0.0 mm 0.00 in0.0 mm
11:11 AM 63.1°F17.3°C 52.3°F11.3°C 68% 4.7 mph SW7.6 kmh SW 11.6 mph18.7 kmh 30.03 in1016.9 mb 0.00 in0.0 mm 0.00 in0.0 mm 0.00 in0.0 mm
11:16 AM 63.1°F17.3°C 52.9°F11.6°C 69% 2.5 mph WSW4.0 kmh WSW 7.4 mph11.9 kmh 30.03 in1016.9 mb 0.00 in0.0 mm 0.00 in0.0 mm 0.00 in0.0 mm
11:21 AM 63.3°F17.4°C 53.1°F11.7°C 69% 5.4 mph NW8.7 kmh NW 12.8 mph20.6 kmh 30.03 in1016.9 mb 0.00 in0.0 mm 0.00 in0.0 mm 0.00 in0.0 mm
11:26 AM 63.1°F17.3°C 52.9°F11.6°C 69% 3.1 mph WNW5.0 kmh WNW 8.5 mph13.7 kmh 30.03 in1016.9 mb 0.00 in0.0 mm 0.00 in0.0 mm 0.00 in0.0 mm
11:31 AM 63.3°F17.4°C 53.1°F11.7°C 69% 3.4 mph WSW5.5 kmh WSW 10.5 mph16.9 kmh 30.03 in1016.9 mb 0.00 in0.0 mm 0.00 in0.0 mm 0.00 in0.0 mm
11:36 AM 63.3°F17.4°C 53.1°F11.7°C 69% 2.5 mph WSW4.0 kmh WSW 9.6 mph15.4 kmh 30.03 in1016.9 mb 0.00 in0.0 mm 0.00 in0.0 mm 0.00 in0.0 mm
11:41 AM 63.1°F17.3°C 52.9°F11.6°C 69% 4.0 mph SW6.4 kmh SW 9.6 mph15.4 kmh 30.03 in1016.9 mb 0.00 in0.0 mm 0.00 in0.0 mm 0.00 in0.0 mm
11:46 AM 63.1°F17.3°C 52.9°F11.6°C 69% 1.6 mph SSW2.6 kmh SSW 7.4 mph11.9 kmh 30.03 in1016.9 mb 0.00 in0.0 mm 0.00 in0.0 mm 0.00 in0.0 mm
11:51 AM 63.3°F17.4°C 53.4°F11.9°C 70% 2.0 mph SW3.2 kmh SW 6.3 mph10.1 kmh 30.03 in1016.9 mb 0.00 in0.0 mm 0.00 in0.0 mm 0.00 in0.0 mm
11:56 AM 63.3°F17.4°C 53.4°F11.9°C 70% 3.6 mph W5.8 kmh W 7.4 mph11.9 kmh 30.03 in1016.9 mb 0.00 in0.0 mm 0.00 in0.0 mm 0.00 in0.0 mm
12:01 PM 63.0°F17.2°C 53.1°F11.7°C 70% 1.3 mph WSW2.1 kmh WSW 11.6 mph18.7 kmh 30.04 in1017.3 mb 0.00 in0.0 mm 0.00 in0.0 mm 0.00 in0.0 mm
12:06 PM 63.1°F17.3°C 53.2°F11.8°C 70% 2.0 mph WSW3.2 kmh WSW 7.4 mph11.9 kmh 30.04 in1017.3 mb 0.00 in0.0 mm 0.00 in0.0 mm 0.00 in0.0 mm
12:11 PM 63.0°F17.2°C 52.7°F11.5°C 69% 3.8 mph WSW6.1 kmh WSW 8.5 mph13.7 kmh 30.04 in1017.3 mb 0.00 in0.0 mm 0.00 in0.0 mm 0.00 in0.0 mm
12:16 PM 62.8°F17.1°C 52.9°F11.6°C 70% 4.0 mph S6.4 kmh S 7.4 mph11.9 kmh 30.04 in1017.3 mb 0.00 in0.0 mm 0.00 in0.0 mm 0.00 in0.0 mm
12:21 PM 63.0°F17.2°C 53.1°F11.7°C 70% 4.5 mph W7.2 kmh W 9.6 mph15.4 kmh 30.04 in1017.3 mb 0.00 in0.0 mm 0.00 in0.0 mm 0.00 in0.0 mm
12:26 PM 62.6°F17.0°C 52.3°F11.3°C 69% 4.3 mph SW6.9 kmh SW 8.5 mph13.7 kmh 30.04 in1017.3 mb 0.00 in0.0 mm 0.00 in0.0 mm 0.00 in0.0 mm
12:31 PM 63.0°F17.2°C 53.1°F11.7°C 70% 1.6 mph SSW2.6 kmh SSW 5.4 mph8.7 kmh 30.03 in1016.9 mb 0.00 in0.0 mm 0.00 in0.0 mm 0.00 in0.0 mm
12:36 PM 62.8°F17.1°C 52.5°F11.4°C 69% 3.4 mph SW5.5 kmh SW 8.5 mph13.7 kmh 30.04 in1017.3 mb 0.00 in0.0 mm 0.00 in0.0 mm 0.00 in0.0 mm
12:41 PM 63.0°F17.2°C 52.7°F11.5°C 69% 2.5 mph NNW4.0 kmh NNW 6.3 mph10.1 kmh 30.04 in1017.3 mb 0.00 in0.0 mm 0.00 in0.0 mm 0.00 in0.0 mm
12:46 PM 62.8°F17.1°C 52.0°F11.1°C 68% 2.9 mph SW4.7 kmh SW 10.5 mph16.9 kmh 30.04 in1017.3 mb 0.00 in0.0 mm 0.00 in0.0 mm 0.00 in0.0 mm
12:51 PM 63.0°F17.2°C 52.2°F11.2°C 68% 2.2 mph W3.5 kmh W 7.4 mph11.9 kmh 30.04 in1017.3 mb 0.00 in0.0 mm 0.00 in0.0 mm 0.00 in0.0 mm
12:56 PM 63.0°F17.2°C 52.7°F11.5°C 69% 3.8 mph WNW6.1 kmh WNW 7.4 mph11.9 kmh 30.04 in1017.3 mb 0.00 in0.0 mm 0.00 in0.0 mm 0.00 in0.0 mm
01:01 PM 63.0°F17.2°C 51.8°F11.0°C 67% 4.0 mph N6.4 kmh N 9.6 mph15.4 kmh 30.03 in1016.9 mb 0.00 in0.0 mm 0.00 in0.0 mm 0.00 in0.0 mm
01:06 PM 62.8°F17.1°C 52.0°F11.1°C 68% 3.4 mph SSW5.5 kmh SSW 6.3 mph10.1 kmh 30.03 in1016.9 mb 0.00 in0.0 mm 0.00 in0.0 mm 0.00 in0.0 mm
01:11 PM 63.0°F17.2°C 52.7°F11.5°C 69% 2.7 mph W4.3 kmh W 8.5 mph13.7 kmh 30.04 in1017.3 mb 0.00 in0.0 mm 0.00 in0.0 mm 0.00 in0.0 mm
01:16 PM 63.3°F17.4°C 52.5°F11.4°C 68% 1.8 mph SW2.9 kmh SW 7.4 mph11.9 kmh 30.04 in1017.3 mb 0.00 in0.0 mm 0.00 in0.0 mm 0.00 in0.0 mm
01:21 PM 63.5°F17.5°C 52.3°F11.3°C 67% 2.9 mph W4.7 kmh W 7.4 mph11.9 kmh 30.04 in1017.3 mb 0.00 in0.0 mm 0.00 in0.0 mm 0.00 in0.0 mm
01:26 PM 63.3°F17.4°C 52.2°F11.2°C 67% 0.4 mph S0.6 kmh S 5.4 mph8.7 kmh 30.04 in1017.3 mb 0.00 in0.0 mm 0.00 in0.0 mm 0.00 in0.0 mm
01:31 PM 63.3°F17.4°C 52.2°F11.2°C 67% 2.7 mph SW4.3 kmh SW 7.4 mph11.9 kmh 30.04 in1017.3 mb 0.00 in0.0 mm 0.00 in0.0 mm 0.00 in0.0 mm
01:36 PM 63.3°F17.4°C 52.2°F11.2°C 67% 4.5 mph SW7.2 kmh SW 8.5 mph13.7 kmh 30.03 in1016.9 mb 0.00 in0.0 mm 0.00 in0.0 mm 0.00 in0.0 mm
01:41 PM 63.1°F17.3°C 52.0°F11.1°C 67% 4.0 mph SSE6.4 kmh SSE 7.4 mph11.9 kmh 30.04 in1017.3 mb 0.00 in0.0 mm 0.00 in0.0 mm 0.00 in0.0 mm
01:46 PM 63.1°F17.3°C 52.0°F11.1°C 67% 4.3 mph SE6.9 kmh SE 7.4 mph11.9 kmh 30.03 in1016.9 mb 0.00 in0.0 mm 0.00 in0.0 mm 0.00 in0.0 mm
01:51 PM 63.1°F17.3°C 52.0°F11.1°C 67% 2.5 mph SW4.0 kmh SW 7.4 mph11.9 kmh 30.03 in1016.9 mb 0.00 in0.0 mm 0.00 in0.0 mm 0.00 in0.0 mm
01:56 PM 63.3°F17.4°C 51.8°F11.0°C 66% 3.4 mph W5.5 kmh W 8.5 mph13.7 kmh 30.03 in1016.9 mb 0.00 in0.0 mm 0.00 in0.0 mm 0.00 in0.0 mm
02:01 PM 63.7°F17.6°C 52.5°F11.4°C 67% 1.6 mph SW2.6 kmh SW 7.4 mph11.9 kmh 30.02 in1016.6 mb 0.00 in0.0 mm 0.00 in0.0 mm 0.00 in0.0 mm
02:06 PM 63.5°F17.5°C 52.0°F11.1°C 66% 3.6 mph SSW5.8 kmh SSW 9.6 mph15.4 kmh 30.02 in1016.6 mb 0.00 in0.0 mm 0.00 in0.0 mm 0.00 in0.0 mm
02:11 PM 63.7°F17.6°C 52.2°F11.2°C 66% 3.1 mph WSW5.0 kmh WSW 6.3 mph10.1 kmh 30.02 in1016.6 mb 0.00 in0.0 mm 0.00 in0.0 mm 0.00 in0.0 mm
02:16 PM 63.9°F17.7°C 52.3°F11.3°C 66% 4.7 mph W7.6 kmh W 8.5 mph13.7 kmh 30.02 in1016.6 mb 0.00 in0.0 mm 0.00 in0.0 mm 0.00 in0.0 mm
02:21 PM 63.7°F17.6°C 51.6°F10.9°C 65% 6.0 mph SSW9.7 kmh SSW 9.6 mph15.4 kmh 30.01 in1016.3 mb 0.00 in0.0 mm 0.00 in0.0 mm 0.00 in0.0 mm
02:26 PM 64.2°F17.9°C 52.7°F11.5°C 66% 5.4 mph SW8.7 kmh SW 7.4 mph11.9 kmh 30.01 in1016.3 mb 0.00 in0.0 mm 0.00 in0.0 mm 0.00 in0.0 mm
02:31 PM 64.6°F18.1°C 52.5°F11.4°C 65% 3.6 mph S5.8 kmh S 8.5 mph13.7 kmh 30.01 in1016.3 mb 0.00 in0.0 mm 0.00 in0.0 mm 0.00 in0.0 mm
02:36 PM 64.9°F18.3°C 52.9°F11.6°C 65% 5.4 mph SW8.7 kmh SW 10.5 mph16.9 kmh 30.01 in1016.3 mb 0.00 in0.0 mm 0.00 in0.0 mm 0.00 in0.0 mm
02:41 PM 64.9°F18.3°C 52.5°F11.4°C 64% 4.9 mph SW7.9 kmh SW 8.5 mph13.7 kmh 30.01 in1016.3 mb 0.00 in0.0 mm 0.00 in0.0 mm 0.00 in0.0 mm
02:46 PM 64.8°F18.2°C 52.3°F11.3°C 64% 7.6 mph WNW12.2 kmh WNW 11.6 mph18.7 kmh 30.01 in1016.3 mb 0.00 in0.0 mm 0.00 in0.0 mm 0.00 in0.0 mm
02:51 PM 64.9°F18.3°C 52.5°F11.4°C 64% 6.5 mph WSW10.5 kmh WSW 11.6 mph18.7 kmh 30.01 in1016.3 mb 0.00 in0.0 mm 0.00 in0.0 mm 0.00 in0.0 mm
02:56 PM 64.8°F18.2°C 52.3°F11.3°C 64% 2.7 mph SSW4.3 kmh SSW 8.5 mph13.7 kmh 30.01 in1016.3 mb 0.00 in0.0 mm 0.00 in0.0 mm 0.00 in0.0 mm
03:01 PM 64.8°F18.2°C 52.3°F11.3°C 64% 4.3 mph SW6.9 kmh SW 8.5 mph13.7 kmh 30.01 in1016.3 mb 0.00 in0.0 mm 0.00 in0.0 mm 0.00 in0.0 mm
03:06 PM 64.4°F18.0°C 52.3°F11.3°C 65% 3.8 mph SW6.1 kmh SW 9.6 mph15.4 kmh 30.01 in1016.3 mb 0.00 in0.0 mm 0.00 in0.0 mm 0.00 in0.0 mm
03:11 PM 64.0°F17.8°C 53.2°F11.8°C 68% 3.6 mph WSW5.8 kmh WSW 10.5 mph16.9 kmh 30.01 in1016.3 mb 0.00 in0.0 mm 0.00 in0.0 mm 0.00 in0.0 mm
03:16 PM 63.7°F17.6°C 53.2°F11.8°C 69% 4.5 mph WSW7.2 kmh WSW 10.5 mph16.9 kmh 30.01 in1016.3 mb 0.00 in0.0 mm 0.00 in0.0 mm 0.00 in0.0 mm
03:21 PM 63.1°F17.3°C 53.2°F11.8°C 70% 5.1 mph W8.2 kmh W 12.8 mph20.6 kmh 30.01 in1016.3 mb 0.00 in0.0 mm 0.00 in0.0 mm 0.00 in0.0 mm
03:26 PM 63.1°F17.3°C 53.2°F11.8°C 70% 3.6 mph WSW5.8 kmh WSW 12.8 mph20.6 kmh 30.01 in1016.3 mb 0.00 in0.0 mm 0.00 in0.0 mm 0.00 in0.0 mm
03:31 PM 62.8°F17.1°C 52.9°F11.6°C 70% 4.0 mph WNW6.4 kmh WNW 11.6 mph18.7 kmh 30.01 in1016.3 mb 0.00 in0.0 mm 0.00 in0.0 mm 0.00 in0.0 mm
03:36 PM 62.4°F16.9°C 52.5°F11.4°C 70% 5.1 mph NW8.2 kmh NW 9.6 mph15.4 kmh 30.01 in1016.3 mb 0.00 in0.0 mm 0.00 in0.0 mm 0.00 in0.0 mm
03:41 PM 62.2°F16.8°C 52.7°F11.5°C 71% 4.7 mph NW7.6 kmh NW 9.6 mph15.4 kmh 30.01 in1016.3 mb 0.00 in0.0 mm 0.00 in0.0 mm 0.00 in0.0 mm
03:46 PM 62.4°F16.9°C 52.9°F11.6°C 71% 4.3 mph NW6.9 kmh NW 9.6 mph15.4 kmh 30.01 in1016.3 mb 0.00 in0.0 mm 0.00 in0.0 mm 0.00 in0.0 mm
03:51 PM 62.2°F16.8°C 52.7°F11.5°C 71% 2.2 mph W3.5 kmh W 7.4 mph11.9 kmh 30.01 in1016.3 mb 0.00 in0.0 mm 0.00 in0.0 mm 0.00 in0.0 mm
03:56 PM 62.2°F16.8°C 52.7°F11.5°C 71% 3.4 mph WSW5.5 kmh WSW 7.4 mph11.9 kmh 30.01 in1016.3 mb 0.00 in0.0 mm 0.00 in0.0 mm 0.00 in0.0 mm
04:01 PM 62.1°F16.7°C 52.5°F11.4°C 71% 3.8 mph WSW6.1 kmh WSW 7.4 mph11.9 kmh 30.01 in1016.3 mb 0.00 in0.0 mm 0.00 in0.0 mm 0.00 in0.0 mm
04:06 PM 62.1°F16.7°C 52.5°F11.4°C 71% 3.8 mph WNW6.1 kmh WNW 6.3 mph10.1 kmh 30.01 in1016.3 mb 0.00 in0.0 mm 0.00 in0.0 mm 0.00 in0.0 mm
04:11 PM 62.1°F16.7°C 52.5°F11.4°C 71% 0.9 mph SW1.4 kmh SW 7.4 mph11.9 kmh 30.01 in1016.3 mb 0.00 in0.0 mm 0.00 in0.0 mm 0.00 in0.0 mm
04:16 PM 62.4°F16.9°C 52.5°F11.4°C 70% 2.5 mph WSW4.0 kmh WSW 8.5 mph13.7 kmh 30.00 in1015.9 mb 0.00 in0.0 mm 0.00 in0.0 mm 0.00 in0.0 mm
04:21 PM 63.0°F17.2°C 52.7°F11.5°C 69% 3.1 mph NW5.0 kmh NW 8.5 mph13.7 kmh 30.00 in1015.9 mb 0.00 in0.0 mm 0.00 in0.0 mm 0.00 in0.0 mm
04:26 PM 63.0°F17.2°C 52.7°F11.5°C 69% 3.6 mph WNW5.8 kmh WNW 8.5 mph13.7 kmh 30.00 in1015.9 mb 0.00 in0.0 mm 0.00 in0.0 mm 0.00 in0.0 mm
04:31 PM 63.1°F17.3°C 52.9°F11.6°C 69% 3.4 mph WNW5.5 kmh WNW 7.4 mph11.9 kmh 30.00 in1015.9 mb 0.00 in0.0 mm 0.00 in0.0 mm 0.00 in0.0 mm
04:36 PM 63.5°F17.5°C 52.3°F11.3°C 67% 3.1 mph SW5.0 kmh SW 8.5 mph13.7 kmh 30.00 in1015.9 mb 0.00 in0.0 mm 0.00 in0.0 mm 0.00 in0.0 mm
04:41 PM 63.1°F17.3°C 52.0°F11.1°C 67% 3.4 mph WNW5.5 kmh WNW 8.5 mph13.7 kmh 30.00 in1015.9 mb 0.00 in0.0 mm 0.00 in0.0 mm 0.00 in0.0 mm
04:46 PM 62.8°F17.1°C 52.0°F11.1°C 68% 1.6 mph WNW2.6 kmh WNW 8.5 mph13.7 kmh 29.99 in1015.6 mb 0.00 in0.0 mm 0.00 in0.0 mm 0.00 in0.0 mm
04:51 PM 63.0°F17.2°C 52.2°F11.2°C 68% 3.4 mph WNW5.5 kmh WNW 7.4 mph11.9 kmh 29.99 in1015.6 mb 0.00 in0.0 mm 0.00 in0.0 mm 0.00 in0.0 mm
04:56 PM 63.5°F17.5°C 52.3°F11.3°C 67% 2.2 mph WNW3.5 kmh WNW 4.3 mph6.9 kmh 29.99 in1015.6 mb 0.00 in0.0 mm 0.00 in0.0 mm 0.00 in0.0 mm
05:01 PM 63.3°F17.4°C 52.2°F11.2°C 67% 2.9 mph SW4.7 kmh SW 5.4 mph8.7 kmh 29.99 in1015.6 mb 0.00 in0.0 mm 0.00 in0.0 mm 0.00 in0.0 mm
05:06 PM 63.3°F17.4°C 52.2°F11.2°C 67% 2.5 mph WNW4.0 kmh WNW 6.3 mph10.1 kmh 29.99 in1015.6 mb 0.00 in0.0 mm 0.00 in0.0 mm 0.00 in0.0 mm
05:11 PM 63.3°F17.4°C 52.5°F11.4°C 68% 4.7 mph W7.6 kmh W 7.4 mph11.9 kmh 29.99 in1015.6 mb 0.00 in0.0 mm 0.00 in0.0 mm 0.00 in0.0 mm
05:16 PM 63.3°F17.4°C 52.2°F11.2°C 67% 2.5 mph W4.0 kmh W 7.4 mph11.9 kmh 29.99 in1015.6 mb 0.00 in0.0 mm 0.00 in0.0 mm 0.00 in0.0 mm
05:21 PM 63.1°F17.3°C 52.3°F11.3°C 68% 3.1 mph W5.0 kmh W 8.5 mph13.7 kmh 29.98 in1015.2 mb 0.00 in0.0 mm 0.00 in0.0 mm 0.00 in0.0 mm
05:26 PM 63.5°F17.5°C 52.3°F11.3°C 67% 3.4 mph WSW5.5 kmh WSW 6.3 mph10.1 kmh 29.99 in1015.6 mb 0.00 in0.0 mm 0.00 in0.0 mm 0.00 in0.0 mm
05:31 PM 63.3°F17.4°C 52.2°F11.2°C 67% 2.2 mph W3.5 kmh W 6.3 mph10.1 kmh 29.99 in1015.6 mb 0.00 in0.0 mm 0.00 in0.0 mm 0.00 in0.0 mm
05:36 PM 63.1°F17.3°C 52.0°F11.1°C 67% 4.3 mph WSW6.9 kmh WSW 7.4 mph11.9 kmh 29.99 in1015.6 mb 0.00 in0.0 mm 0.00 in0.0 mm 0.00 in0.0 mm
05:41 PM 63.0°F17.2°C 51.8°F11.0°C 67% 4.3 mph WSW6.9 kmh WSW 7.4 mph11.9 kmh 29.99 in1015.6 mb 0.00 in0.0 mm 0.00 in0.0 mm 0.00 in0.0 mm
05:46 PM 63.0°F17.2°C 52.2°F11.2°C 68% 2.2 mph W3.5 kmh W 6.3 mph10.1 kmh 29.99 in1015.6 mb 0.00 in0.0 mm 0.00 in0.0 mm 0.00 in0.0 mm
05:51 PM 62.8°F17.1°C 52.0°F11.1°C 68% 3.1 mph SW5.0 kmh SW 8.5 mph13.7 kmh 29.99 in1015.6 mb 0.00 in0.0 mm 0.00 in0.0 mm 0.00 in0.0 mm
05:56 PM 62.4°F16.9°C 52.2°F11.2°C 69% 2.9 mph NW4.7 kmh NW 6.3 mph10.1 kmh 29.99 in1015.6 mb 0.00 in0.0 mm 0.00 in0.0 mm 0.00 in0.0 mm
06:01 PM 62.1°F16.7°C 51.8°F11.0°C 69% 4.0 mph WNW6.4 kmh WNW 7.4 mph11.9 kmh 29.99 in1015.6 mb 0.00 in0.0 mm 0.00 in0.0 mm 0.00 in0.0 mm
06:06 PM 61.7°F16.5°C 51.4°F10.8°C 69% 3.1 mph WNW5.0 kmh WNW 8.5 mph13.7 kmh 29.99 in1015.6 mb 0.00 in0.0 mm 0.00 in0.0 mm 0.00 in0.0 mm
06:11 PM 61.3°F16.3°C 51.4°F10.8°C 70% 2.7 mph NNE4.3 kmh NNE 8.5 mph13.7 kmh 29.99 in1015.6 mb 0.00 in0.0 mm 0.00 in0.0 mm 0.00 in0.0 mm
06:16 PM 61.2°F16.2°C 51.3°F10.7°C 70% 1.8 mph WSW2.9 kmh WSW 6.3 mph10.1 kmh 29.99 in1015.6 mb 0.00 in0.0 mm 0.00 in0.0 mm 0.00 in0.0 mm
06:21 PM 60.8°F16.0°C 50.9°F10.5°C 70% 3.4 mph WNW5.5 kmh WNW 6.3 mph10.1 kmh 29.99 in1015.6 mb 0.00 in0.0 mm 0.00 in0.0 mm 0.00 in0.0 mm
06:26 PM 60.4°F15.8°C 50.5°F10.3°C 70% 2.9 mph NW4.7 kmh NW 5.4 mph8.7 kmh 29.99 in1015.6 mb 0.00 in0.0 mm 0.00 in0.0 mm 0.00 in0.0 mm
06:31 PM 60.4°F15.8°C 51.4°F10.8°C 72% 1.6 mph W2.6 kmh W 4.3 mph6.9 kmh 29.99 in1015.6 mb 0.00 in0.0 mm 0.00 in0.0 mm 0.00 in0.0 mm
06:36 PM 60.1°F15.6°C 51.4°F10.8°C 73% 1.6 mph WSW2.6 kmh WSW 4.3 mph6.9 kmh 29.99 in1015.6 mb 0.00 in0.0 mm 0.00 in0.0 mm 0.00 in0.0 mm
06:41 PM 60.1°F15.6°C 51.8°F11.0°C 74% 1.8 mph NNW2.9 kmh NNW 4.3 mph6.9 kmh 29.99 in1015.6 mb 0.00 in0.0 mm 0.00 in0.0 mm 0.00 in0.0 mm
06:46 PM 59.7°F15.4°C 51.8°F11.0°C 75% 3.6 mph WNW5.8 kmh WNW 6.3 mph10.1 kmh 29.99 in1015.6 mb 0.00 in0.0 mm 0.00 in0.0 mm 0.00 in0.0 mm
06:51 PM 59.5°F15.3°C 52.0°F11.1°C 76% 2.2 mph WNW3.5 kmh WNW 5.4 mph8.7 kmh 29.99 in1015.6 mb 0.00 in0.0 mm 0.00 in0.0 mm 0.00 in0.0 mm
06:56 PM 59.5°F15.3°C 52.0°F11.1°C 76% 3.1 mph NW5.0 kmh NW 6.3 mph10.1 kmh 29.99 in1015.6 mb 0.00 in0.0 mm 0.00 in0.0 mm 0.00 in0.0 mm
07:01 PM 59.4°F15.2°C 52.2°F11.2°C 77% 2.2 mph WSW3.5 kmh WSW 5.4 mph8.7 kmh 29.99 in1015.6 mb 0.00 in0.0 mm 0.00 in0.0 mm 0.00 in0.0 mm
07:06 PM 59.2°F15.1°C 52.3°F11.3°C 78% 1.6 mph NW2.6 kmh NW 5.4 mph8.7 kmh 29.99 in1015.6 mb 0.00 in0.0 mm 0.00 in0.0 mm 0.00 in0.0 mm
07:11 PM 59.2°F15.1°C 52.3°F11.3°C 78% 0.9 mph WSW1.4 kmh WSW 4.3 mph6.9 kmh 29.99 in1015.6 mb 0.00 in0.0 mm 0.00 in0.0 mm 0.00 in0.0 mm
07:16 PM 59.0°F15.0°C 52.5°F11.4°C 79% 0.7 mph SW1.1 kmh SW 5.4 mph8.7 kmh 29.99 in1015.6 mb 0.00 in0.0 mm 0.00 in0.0 mm 0.00 in0.0 mm
07:21 PM 58.8°F14.9°C 52.7°F11.5°C 80% 0.7 mph W1.1 kmh W 1.1 mph1.8 kmh 29.99 in1015.6 mb 0.00 in0.0 mm 0.00 in0.0 mm 0.00 in0.0 mm
07:26 PM 58.8°F14.9°C 53.1°F11.7°C 81% 1.8 mph WSW2.9 kmh WSW 3.1 mph5.0 kmh 30.00 in1015.9 mb 0.00 in0.0 mm 0.00 in0.0 mm 0.00 in0.0 mm
07:31 PM 58.6°F14.8°C 52.9°F11.6°C 81% 2.0 mph WSW3.2 kmh WSW 4.3 mph6.9 kmh 30.00 in1015.9 mb 0.00 in0.0 mm 0.00 in0.0 mm 0.00 in0.0 mm
07:36 PM 58.5°F14.7°C 52.7°F11.5°C 81% 0.4 mph W0.6 kmh W 2.0 mph3.2 kmh 30.00 in1015.9 mb 0.00 in0.0 mm 0.00 in0.0 mm 0.00 in0.0 mm
07:41 PM 58.5°F14.7°C 53.1°F11.7°C 82% 0.9 mph NW1.4 kmh NW 2.0 mph3.2 kmh 30.00 in1015.9 mb 0.00 in0.0 mm 0.00 in0.0 mm 0.00 in0.0 mm
07:46 PM 58.3°F14.6°C 52.9°F11.6°C 82% Calm Calm 1.1 mph1.8 kmh 30.00 in1015.9 mb 0.00 in0.0 mm 0.00 in0.0 mm 0.00 in0.0 mm
07:51 PM 58.1°F14.5°C 52.7°F11.5°C 82% 0.9 mph W1.4 kmh W 2.0 mph3.2 kmh 30.00 in1015.9 mb 0.00 in0.0 mm 0.00 in0.0 mm 0.00 in0.0 mm
07:56 PM 57.9°F14.4°C 52.5°F11.4°C 82% Calm Calm 2.0 mph3.2 kmh 30.00 in1015.9 mb 0.00 in0.0 mm 0.00 in0.0 mm 0.00 in0.0 mm
08:01 PM 57.9°F14.4°C 52.7°F11.5°C 83% 0.2 mph NW0.3 kmh NW 2.0 mph3.2 kmh 30.00 in1015.9 mb 0.00 in0.0 mm 0.00 in0.0 mm 0.00 in0.0 mm
08:06 PM 57.7°F14.3°C 52.7°F11.5°C 83% 0.2 mph NW0.3 kmh NW 1.1 mph1.8 kmh 30.00 in1015.9 mb 0.00 in0.0 mm 0.00 in0.0 mm 0.00 in0.0 mm
08:11 PM 57.6°F14.2°C 52.5°F11.4°C 83% Calm Calm -- 30.00 in1015.9 mb 0.00 in0.0 mm 0.00 in0.0 mm 0.00 in0.0 mm
08:16 PM 57.6°F14.2°C 52.5°F11.4°C 83% Calm Calm -- 30.00 in1015.9 mb 0.00 in0.0 mm 0.00 in0.0 mm 0.00 in0.0 mm
08:21 PM 57.4°F14.1°C 52.5°F11.4°C 84% Calm Calm -- 30.00 in1015.9 mb 0.00 in0.0 mm 0.00 in0.0 mm 0.00 in0.0 mm
08:26 PM 57.4°F14.1°C 52.5°F11.4°C 84% 0.4 mph NW0.6 kmh NW 2.0 mph3.2 kmh 30.00 in1015.9 mb 0.00 in0.0 mm 0.00 in0.0 mm 0.00 in0.0 mm
08:31 PM 57.4°F14.1°C 52.5°F11.4°C 84% 0.4 mph NW0.6 kmh NW 1.1 mph1.8 kmh 30.00 in1015.9 mb 0.00 in0.0 mm 0.00 in0.0 mm 0.00 in0.0 mm
08:36 PM 57.4°F14.1°C 52.9°F11.6°C 85% Calm Calm 1.1 mph1.8 kmh 30.00 in1015.9 mb 0.00 in0.0 mm 0.00 in0.0 mm 0.00 in0.0 mm
08:41 PM 57.2°F14.0°C 52.7°F11.5°C 85% Calm Calm -- 30.01 in1016.3 mb 0.00 in0.0 mm 0.00 in0.0 mm 0.00 in0.0 mm
08:46 PM 57.0°F13.9°C 52.5°F11.4°C 85% Calm Calm -- 30.01 in1016.3 mb 0.00 in0.0 mm 0.00 in0.0 mm 0.00 in0.0 mm
08:51 PM 57.0°F13.9°C 52.9°F11.6°C 86% Calm Calm 2.0 mph3.2 kmh 30.00 in1015.9 mb 0.00 in0.0 mm 0.00 in0.0 mm 0.00 in0.0 mm
08:56 PM 56.8°F13.8°C 52.7°F11.5°C 86% 0.2 mph NW0.3 kmh NW 1.1 mph1.8 kmh 30.00 in1015.9 mb 0.00 in0.0 mm 0.00 in0.0 mm 0.00 in0.0 mm
09:01 PM 56.8°F13.8°C 52.7°F11.5°C 86% Calm Calm -- 30.00 in1015.9 mb 0.00 in0.0 mm 0.00 in0.0 mm 0.00 in0.0 mm
09:06 PM 56.7°F13.7°C 52.9°F11.6°C 87% Calm Calm -- 30.01 in1016.3 mb 0.00 in0.0 mm 0.00 in0.0 mm 0.00 in0.0 mm
09:11 PM 56.7°F13.7°C 52.9°F11.6°C 87% Calm Calm -- 30.01 in1016.3 mb 0.00 in0.0 mm 0.00 in0.0 mm 0.00 in0.0 mm
09:16 PM 56.5°F13.6°C 52.7°F11.5°C 87% Calm Calm -- 30.00 in1015.9 mb 0.00 in0.0 mm 0.00 in0.0 mm 0.00 in0.0 mm
09:21 PM 56.5°F13.6°C 52.7°F11.5°C 87% Calm Calm 1.1 mph1.8 kmh 30.01 in1016.3 mb 0.00 in0.0 mm 0.00 in0.0 mm 0.00 in0.0 mm
09:26 PM 56.5°F13.6°C 52.9°F11.6°C 88% Calm Calm 1.1 mph1.8 kmh 30.01 in1016.3 mb 0.00 in0.0 mm 0.00 in0.0 mm 0.00 in0.0 mm
09:31 PM 56.3°F13.5°C 52.5°F11.4°C 87% Calm Calm -- 30.01 in1016.3 mb 0.00 in0.0 mm 0.00 in0.0 mm 0.00 in0.0 mm
09:36 PM 55.9°F13.3°C 52.2°F11.2°C 87% Calm Calm -- 30.01 in1016.3 mb 0.00 in0.0 mm 0.00 in0.0 mm 0.00 in0.0 mm
09:41 PM 55.8°F13.2°C 52.0°F11.1°C 87% Calm Calm -- 30.01 in1016.3 mb 0.00 in0.0 mm 0.00 in0.0 mm 0.00 in0.0 mm
09:46 PM 55.4°F13.0°C 51.6°F10.9°C 87% Calm Calm -- 30.00 in1015.9 mb 0.00 in0.0 mm 0.00 in0.0 mm 0.00 in0.0 mm
09:51 PM 55.0°F12.8°C 51.6°F10.9°C 88% Calm Calm -- 30.00 in1015.9 mb 0.00 in0.0 mm 0.00 in0.0 mm 0.00 in0.0 mm
09:56 PM 55.0°F12.8°C 51.6°F10.9°C 88% Calm Calm -- 30.00 in1015.9 mb 0.00 in0.0 mm 0.00 in0.0 mm 0.00 in0.0 mm
10:01 PM 55.0°F12.8°C 51.8°F11.0°C 89% Calm Calm -- 30.00 in1015.9 mb 0.00 in0.0 mm 0.00 in0.0 mm 0.00 in0.0 mm
10:06 PM 55.0°F12.8°C 51.8°F11.0°C 89% Calm Calm -- 30.00 in1015.9 mb 0.00 in0.0 mm 0.00 in0.0 mm 0.00 in0.0 mm
10:11 PM 55.2°F12.9°C 52.3°F11.3°C 90% Calm Calm -- 30.00 in1015.9 mb 0.00 in0.0 mm 0.00 in0.0 mm 0.00 in0.0 mm
10:16 PM 55.6°F13.1°C 52.3°F11.3°C 89% Calm Calm -- 30.01 in1016.3 mb 0.00 in0.0 mm 0.00 in0.0 mm 0.00 in0.0 mm
10:21 PM 55.6°F13.1°C 52.7°F11.5°C 90% Calm Calm -- 30.01 in1016.3 mb 0.00 in0.0 mm 0.00 in0.0 mm 0.00 in0.0 mm
10:26 PM 55.9°F13.3°C 53.1°F11.7°C 90% Calm Calm -- 30.01 in1016.3 mb 0.00 in0.0 mm 0.00 in0.0 mm 0.00 in0.0 mm
10:31 PM 56.1°F13.4°C 52.9°F11.6°C 89% 0.2 mph WNW0.3 kmh WNW 1.1 mph1.8 kmh 30.01 in1016.3 mb 0.00 in0.0 mm 0.00 in0.0 mm 0.00 in0.0 mm
10:36 PM 56.5°F13.6°C 53.2°F11.8°C 89% 0.2 mph NW0.3 kmh NW 1.1 mph1.8 kmh 30.01 in1016.3 mb 0.00 in0.0 mm 0.00 in0.0 mm 0.00 in0.0 mm
10:41 PM 56.7°F13.7°C 53.1°F11.7°C 88% 0.2 mph NNW0.3 kmh NNW 1.1 mph1.8 kmh 30.00 in1015.9 mb 0.00 in0.0 mm 0.00 in0.0 mm 0.00 in0.0 mm
10:46 PM 56.7°F13.7°C 53.1°F11.7°C 88% Calm Calm -- 30.01 in1016.3 mb 0.00 in0.0 mm 0.00 in0.0 mm 0.00 in0.0 mm
10:51 PM 56.8°F13.8°C 53.1°F11.7°C 87% Calm Calm -- 30.01 in1016.3 mb 0.00 in0.0 mm 0.00 in0.0 mm 0.00 in0.0 mm
10:56 PM 56.8°F13.8°C 53.1°F11.7°C 87% Calm Calm -- 30.00 in1015.9 mb 0.00 in0.0 mm 0.00 in0.0 mm 0.00 in0.0 mm
11:01 PM 56.8°F13.8°C 53.1°F11.7°C 87% Calm Calm -- 30.00 in1015.9 mb 0.00 in0.0 mm 0.00 in0.0 mm 0.00 in0.0 mm
11:06 PM 57.0°F13.9°C 53.2°F11.8°C 87% Calm Calm -- 30.00 in1015.9 mb 0.00 in0.0 mm 0.00 in0.0 mm 0.00 in0.0 mm
11:11 PM 57.0°F13.9°C 53.2°F11.8°C 87% Calm Calm -- 30.00 in1015.9 mb 0.00 in0.0 mm 0.00 in0.0 mm 0.00 in0.0 mm
11:16 PM 57.2°F14.0°C 53.4°F11.9°C 87% Calm Calm -- 30.00 in1015.9 mb 0.00 in0.0 mm 0.00 in0.0 mm 0.00 in0.0 mm
11:21 PM 57.2°F14.0°C 53.1°F11.7°C 86% Calm Calm -- 30.00 in1015.9 mb 0.00 in0.0 mm 0.00 in0.0 mm 0.00 in0.0 mm
11:26 PM 57.2°F14.0°C 53.1°F11.7°C 86% Calm Calm -- 30.00 in1015.9 mb 0.00 in0.0 mm 0.00 in0.0 mm 0.00 in0.0 mm
11:31 PM 57.2°F14.0°C 53.1°F11.7°C 86% Calm Calm -- 30.00 in1015.9 mb 0.00 in0.0 mm 0.00 in0.0 mm 0.00 in0.0 mm
11:36 PM 57.2°F14.0°C 53.1°F11.7°C 86% Calm Calm -- 29.99 in1015.6 mb 0.00 in0.0 mm 0.00 in0.0 mm 0.00 in0.0 mm
11:41 PM 57.4°F14.1°C 53.2°F11.8°C 86% Calm Calm -- 29.99 in1015.6 mb 0.00 in0.0 mm 0.00 in0.0 mm 0.00 in0.0 mm
11:46 PM 57.4°F14.1°C 53.2°F11.8°C 86% 0.2 mph WNW0.3 kmh WNW 1.1 mph1.8 kmh 30.00 in1015.9 mb 0.00 in0.0 mm 0.00 in0.0 mm 0.00 in0.0 mm
11:51 PM 57.4°F14.1°C 52.9°F11.6°C 85% 0.2 mph NW0.3 kmh NW 1.1 mph1.8 kmh 29.99 in1015.6 mb 0.00 in0.0 mm 0.00 in0.0 mm 0.00 in0.0 mm
11:56 PM 57.6°F14.2°C 53.1°F11.7°C 85% Calm Calm 1.1 mph1.8 kmh 29.99 in1015.6 mb 0.00 in0.0 mm 0.00 in0.0 mm 0.00 in0.0 mm